createdAt,value
2019-06-08T00:00:01.608Z,14.87
2019-06-08T00:01:01.631Z,14.90
2019-06-08T00:02:01.596Z,14.85
2019-06-08T00:03:01.622Z,14.82
2019-06-08T00:04:01.557Z,14.92
2019-06-08T00:05:01.657Z,14.92
2019-06-08T00:06:01.548Z,14.93
2019-06-08T00:07:01.578Z,14.82
2019-06-08T00:08:01.510Z,14.93
2019-06-08T00:09:01.572Z,14.82
2019-06-08T00:10:01.491Z,14.71
2019-06-08T00:11:01.597Z,14.67
2019-06-08T00:12:01.486Z,14.62
2019-06-08T00:13:01.521Z,14.63
2019-06-08T00:14:01.448Z,14.59
2019-06-08T00:15:01.499Z,14.55
2019-06-08T00:16:01.423Z,14.52
2019-06-08T00:17:01.473Z,14.66
2019-06-08T00:18:01.403Z,14.59
2019-06-08T00:19:01.424Z,14.59
2019-06-08T00:20:01.382Z,14.52
2019-06-08T00:21:01.446Z,14.49
2019-06-08T00:22:01.375Z,14.43
2019-06-08T00:23:01.455Z,14.53
2019-06-08T00:24:01.339Z,14.49
2019-06-08T00:25:01.386Z,14.45
2019-06-08T00:26:01.314Z,14.55
2019-06-08T00:27:01.469Z,14.49
2019-06-08T00:28:01.311Z,14.48
2019-06-08T00:29:01.390Z,14.51
2019-06-08T00:30:01.381Z,14.45
2019-06-08T00:31:10.317Z,14.52
2019-06-08T00:32:01.261Z,14.56
2019-06-08T00:33:03.370Z,14.52
2019-06-08T00:34:01.229Z,14.52
2019-06-08T00:35:02.254Z,14.43
2019-06-08T00:36:01.212Z,14.40
2019-06-08T00:37:01.275Z,14.43
2019-06-08T00:38:01.190Z,14.38
2019-06-08T00:39:01.257Z,14.45
2019-06-08T00:40:01.175Z,14.33
2019-06-08T00:41:01.170Z,14.33
2019-06-08T00:42:01.143Z,14.45
2019-06-08T00:43:01.215Z,14.37
2019-06-08T00:44:01.122Z,14.48
2019-06-08T00:45:01.203Z,14.43
2019-06-08T00:46:01.124Z,14.36
2019-06-08T00:47:01.104Z,14.31
2019-06-08T00:48:01.088Z,14.31
2019-06-08T00:49:01.118Z,14.26
2019-06-08T00:50:01.049Z,14.34
2019-06-08T00:51:01.170Z,14.30
2019-06-08T00:52:01.026Z,14.36
2019-06-08T00:53:01.077Z,14.31
2019-06-08T00:54:01.004Z,14.23
2019-06-08T00:55:01.069Z,14.26
2019-06-08T00:56:00.982Z,14.22
2019-06-08T00:57:01.072Z,14.15
2019-06-08T00:58:00.989Z,14.30
2019-06-08T00:59:00.997Z,14.38
2019-06-08T01:00:09.706Z,14.33
2019-06-08T01:01:01.932Z,14.37
2019-06-08T01:02:01.007Z,14.22
2019-06-08T01:03:00.919Z,14.28
2019-06-08T01:04:00.920Z,14.33
2019-06-08T01:05:00.885Z,14.28
2019-06-08T01:06:00.931Z,14.15
2019-06-08T01:07:00.859Z,14.28
2019-06-08T01:08:00.977Z,14.15
2019-06-08T01:09:00.843Z,14.20
2019-06-08T01:10:00.868Z,14.11
2019-06-08T01:11:00.836Z,14.18
2019-06-08T01:12:00.872Z,14.08
2019-06-08T01:13:00.813Z,14.19
2019-06-08T01:14:00.883Z,14.20
2019-06-08T01:15:00.797Z,14.33
2019-06-08T01:16:00.798Z,14.25
2019-06-08T01:17:00.753Z,14.26
2019-06-08T01:18:03.882Z,14.23
2019-06-08T01:19:00.725Z,14.31
2019-06-08T01:20:01.803Z,14.26
2019-06-08T01:21:00.706Z,14.36
2019-06-08T01:22:00.730Z,14.37
2019-06-08T01:23:00.696Z,14.45
2019-06-08T01:24:00.758Z,14.53
2019-06-08T01:25:00.665Z,14.55
2019-06-08T01:26:01.683Z,14.59
2019-06-08T01:27:00.698Z,14.79
2019-06-08T01:28:00.700Z,14.87
2019-06-08T01:29:00.620Z,14.81
2019-06-08T01:30:00.688Z,14.74
2019-06-08T01:31:00.598Z,14.68
2019-06-08T01:32:00.706Z,14.70
2019-06-08T01:33:00.585Z,14.70
2019-06-08T01:34:00.611Z,14.78
2019-06-08T01:35:00.550Z,14.77
2019-06-08T01:36:00.628Z,14.70
2019-06-08T01:37:00.541Z,14.62
2019-06-08T01:38:00.563Z,14.59
2019-06-08T01:39:00.506Z,14.66
2019-06-08T01:40:00.549Z,14.52
2019-06-08T01:41:00.489Z,14.52
2019-06-08T01:42:00.563Z,14.53
2019-06-08T01:43:00.478Z,14.56
2019-06-08T01:44:00.475Z,14.51
2019-06-08T01:45:00.436Z,14.53
2019-06-08T01:46:00.497Z,14.45
2019-06-08T01:47:00.417Z,14.37
2019-06-08T01:48:00.537Z,14.44
2019-06-08T01:49:00.394Z,14.26
2019-06-08T01:50:00.424Z,14.34
2019-06-08T01:51:00.369Z,14.31
2019-06-08T01:52:00.431Z,14.13
2019-06-08T01:53:00.364Z,14.15
2019-06-08T01:54:00.442Z,14.25
2019-06-08T01:55:00.331Z,14.22
2019-06-08T01:56:00.395Z,14.18
2019-06-08T01:57:00.306Z,14.13
2019-06-08T01:58:00.399Z,14.13
2019-06-08T01:59:00.290Z,14.13
2019-06-08T02:00:00.464Z,14.11
2019-06-08T02:01:00.267Z,14.07
2019-06-08T02:02:07.257Z,14.12
2019-06-08T02:03:00.268Z,14.08
2019-06-08T02:04:01.339Z,14.00
2019-06-08T02:05:00.225Z,13.98
2019-06-08T02:06:01.245Z,13.98
2019-06-08T02:07:00.193Z,13.95
2019-06-08T02:08:00.231Z,13.97
2019-06-08T02:09:00.185Z,14.03
2019-06-08T02:10:00.251Z,14.12
2019-06-08T02:11:00.152Z,14.19
2019-06-08T02:12:00.264Z,14.28
2019-06-08T02:13:00.127Z,14.25
2019-06-08T02:14:00.203Z,14.26
2019-06-08T02:15:00.119Z,14.15
2019-06-08T02:16:00.196Z,14.16
2019-06-08T02:17:00.090Z,14.20
2019-06-08T02:18:00.091Z,14.25
2019-06-08T02:19:00.074Z,14.19
2019-06-08T02:20:00.115Z,14.04
2019-06-08T02:21:00.038Z,13.94
2019-06-08T02:22:00.121Z,13.95
2019-06-08T02:23:00.025Z,14.11
2019-06-08T02:24:00.058Z,14.04
2019-06-08T02:25:00.000Z,13.87
2019-06-08T02:26:00.048Z,13.86
2019-06-08T02:26:59.976Z,13.80
2019-06-08T02:28:00.068Z,13.83
2019-06-08T02:28:59.969Z,13.85
2019-06-08T02:29:59.973Z,13.83
2019-06-08T02:30:59.935Z,13.76
2019-06-08T02:31:59.984Z,13.83
2019-06-08T02:32:59.906Z,13.80
2019-06-08T02:33:59.916Z,13.79
2019-06-08T02:34:59.884Z,13.83
2019-06-08T02:35:59.916Z,13.85
2019-06-08T02:36:59.864Z,13.71
2019-06-08T02:37:59.922Z,13.71
2019-06-08T02:38:59.867Z,13.73
2019-06-08T02:39:59.955Z,13.67
2019-06-08T02:40:59.817Z,13.62
2019-06-08T02:41:59.851Z,13.64
2019-06-08T02:42:59.795Z,13.67
2019-06-08T02:44:01.842Z,13.65
2019-06-08T02:44:59.782Z,13.71
2019-06-08T02:45:59.878Z,13.68
2019-06-08T02:46:59.755Z,13.70
2019-06-08T02:48:06.763Z,13.68
2019-06-08T02:49:04.100Z,13.82
2019-06-08T02:50:01.756Z,13.75
2019-06-08T02:50:59.785Z,13.76
2019-06-08T02:51:59.747Z,13.82
2019-06-08T02:52:59.690Z,13.75
2019-06-08T02:53:59.765Z,13.75
2019-06-08T02:54:59.668Z,13.78
2019-06-08T02:55:59.745Z,13.65
2019-06-08T02:56:59.646Z,13.46
2019-06-08T02:57:59.643Z,13.47
2019-06-08T02:58:59.641Z,13.45
2019-06-08T02:59:59.667Z,13.61
2019-06-08T03:00:59.596Z,13.65
2019-06-08T03:01:59.685Z,13.73
2019-06-08T03:02:59.573Z,13.86
2019-06-08T03:03:59.633Z,13.95
2019-06-08T03:04:59.565Z,13.94
2019-06-08T03:05:59.617Z,14.03
2019-06-08T03:06:59.544Z,14.25
2019-06-08T03:07:59.623Z,14.28
2019-06-08T03:08:59.525Z,14.34
2019-06-08T03:09:59.541Z,14.23
2019-06-08T03:10:59.489Z,14.33
2019-06-08T03:11:59.546Z,14.28
2019-06-08T03:12:59.467Z,14.26
2019-06-08T03:13:59.491Z,14.40
2019-06-08T03:14:59.439Z,14.45
2019-06-08T03:15:59.473Z,14.38
2019-06-08T03:16:59.418Z,14.43
2019-06-08T03:17:59.485Z,14.44
2019-06-08T03:18:59.411Z,14.41
2019-06-08T03:19:59.490Z,14.43
2019-06-08T03:20:59.373Z,14.37
2019-06-08T03:21:59.410Z,14.38
2019-06-08T03:22:59.362Z,14.38
2019-06-08T03:23:59.448Z,14.28
2019-06-08T03:24:59.330Z,14.36
2019-06-08T03:25:59.417Z,14.25
2019-06-08T03:26:59.323Z,14.25
2019-06-08T03:27:59.346Z,14.36
2019-06-08T03:28:59.317Z,14.26
2019-06-08T03:29:59.361Z,14.33
2019-06-08T03:30:59.284Z,14.25
2019-06-08T03:31:59.383Z,14.34
2019-06-08T03:32:59.282Z,14.26
2019-06-08T03:34:06.767Z,14.30
2019-06-08T03:34:59.249Z,14.33
2019-06-08T03:36:00.322Z,14.37
2019-06-08T03:36:59.200Z,14.38
2019-06-08T03:37:59.214Z,14.40
2019-06-08T03:38:59.178Z,14.36
2019-06-08T03:39:59.252Z,14.36
2019-06-08T03:40:59.154Z,14.36
2019-06-08T03:41:59.241Z,14.25
2019-06-08T03:43:00.309Z,14.33
2019-06-08T03:43:59.149Z,14.28
2019-06-08T03:44:59.131Z,14.33
2019-06-08T03:45:59.160Z,14.22
2019-06-08T03:46:59.117Z,14.37
2019-06-08T03:47:59.169Z,14.26
2019-06-08T03:48:59.082Z,14.40
2019-06-08T03:49:59.115Z,14.37
2019-06-08T03:50:59.042Z,14.43
2019-06-08T03:51:59.102Z,14.56
2019-06-08T03:52:59.024Z,14.55
2019-06-08T03:53:59.132Z,14.49
2019-06-08T03:54:59.050Z,14.61
2019-06-08T03:55:59.021Z,14.49
2019-06-08T03:56:58.977Z,14.55
2019-06-08T03:57:59.034Z,14.61
2019-06-08T03:58:58.984Z,14.67
2019-06-08T03:59:58.990Z,14.67
2019-06-08T04:00:58.936Z,14.85
2019-06-08T04:01:58.961Z,14.79
2019-06-08T04:02:58.929Z,14.87
2019-06-08T04:04:00.212Z,14.85
2019-06-08T04:04:58.919Z,14.89
2019-06-08T04:05:58.892Z,14.82
2019-06-08T04:06:58.867Z,14.87
2019-06-08T04:07:58.900Z,14.81
2019-06-08T04:08:58.859Z,14.93
2019-06-08T04:09:58.952Z,14.86
2019-06-08T04:10:58.825Z,14.90
2019-06-08T04:11:58.829Z,14.93
2019-06-08T04:12:58.810Z,14.92
2019-06-08T04:14:00.886Z,14.86
2019-06-08T04:14:58.795Z,14.86
2019-06-08T04:15:59.883Z,14.82
2019-06-08T04:16:58.765Z,14.90
2019-06-08T04:17:58.767Z,14.82
2019-06-08T04:18:58.729Z,15.04
2019-06-08T04:20:10.393Z,15.12
2019-06-08T04:20:59.705Z,15.00
2019-06-08T04:21:59.711Z,15.10
2019-06-08T04:22:58.688Z,15.11
2019-06-08T04:23:58.715Z,15.10
2019-06-08T04:24:58.677Z,15.08
2019-06-08T04:25:58.716Z,14.99
2019-06-08T04:26:58.683Z,15.04
2019-06-08T04:27:58.732Z,15.07
2019-06-08T04:28:58.626Z,15.10
2019-06-08T04:29:58.677Z,15.07
2019-06-08T04:30:58.615Z,15.08
2019-06-08T04:31:58.653Z,15.10
2019-06-08T04:32:58.592Z,15.10
2019-06-08T04:33:58.572Z,15.25
2019-06-08T04:34:58.571Z,15.26
2019-06-08T04:35:58.580Z,15.26
2019-06-08T04:36:58.532Z,15.32
2019-06-08T04:37:58.610Z,15.32
2019-06-08T04:38:58.512Z,15.44
2019-06-08T04:39:58.542Z,15.54
2019-06-08T04:40:58.491Z,15.60
2019-06-08T04:41:58.536Z,15.59
2019-06-08T04:42:58.466Z,15.59
2019-06-08T04:43:58.550Z,15.72
2019-06-08T04:44:58.453Z,15.85
2019-06-08T04:45:58.444Z,16.09
2019-06-08T04:46:58.426Z,15.91
2019-06-08T04:47:58.469Z,15.91
2019-06-08T04:48:58.410Z,15.90
2019-06-08T04:49:58.524Z,15.84
2019-06-08T04:50:58.382Z,15.88
2019-06-08T04:51:58.399Z,15.85
2019-06-08T04:52:58.354Z,15.81
2019-06-08T04:53:58.396Z,15.87
2019-06-08T04:54:58.343Z,15.92
2019-06-08T04:55:58.416Z,15.98
2019-06-08T04:56:58.309Z,16.03
2019-06-08T04:57:58.320Z,16.12
2019-06-08T04:58:58.285Z,15.92
2019-06-08T04:59:59.296Z,16.00
2019-06-08T05:00:58.270Z,16.05
2019-06-08T05:01:59.279Z,15.99
2019-06-08T05:02:58.241Z,16.10
2019-06-08T05:03:58.264Z,16.08
2019-06-08T05:04:58.286Z,16.22
2019-06-08T05:06:06.776Z,16.37
2019-06-08T05:06:58.209Z,16.58
2019-06-08T05:07:59.222Z,16.57
2019-06-08T05:08:58.187Z,16.94
2019-06-08T05:09:58.207Z,17.27
2019-06-08T05:10:58.171Z,17.14
2019-06-08T05:11:58.223Z,16.99
2019-06-08T05:12:58.130Z,16.86
2019-06-08T05:13:58.225Z,16.57
2019-06-08T05:14:58.110Z,16.50
2019-06-08T05:15:58.170Z,16.36
2019-06-08T05:16:58.083Z,16.29
2019-06-08T05:17:58.151Z,16.25
2019-06-08T05:18:58.067Z,16.26
2019-06-08T05:19:58.067Z,16.25
2019-06-08T05:20:58.057Z,16.28
2019-06-08T05:21:58.075Z,16.37
2019-06-08T05:22:58.027Z,16.40
2019-06-08T05:23:59.083Z,16.58
2019-06-08T05:24:57.995Z,16.59
2019-06-08T05:25:58.042Z,16.54
2019-06-08T05:26:57.980Z,16.51
2019-06-08T05:27:58.019Z,16.41
2019-06-08T05:28:57.948Z,16.37
2019-06-08T05:29:58.032Z,16.32
2019-06-08T05:30:57.946Z,16.29
2019-06-08T05:31:57.940Z,16.32
2019-06-08T05:32:57.908Z,16.31
2019-06-08T05:33:57.972Z,16.29
2019-06-08T05:34:57.879Z,16.26
2019-06-08T05:35:57.904Z,16.22
2019-06-08T05:36:57.868Z,16.22
2019-06-08T05:37:57.881Z,16.24
2019-06-08T05:38:57.838Z,16.29
2019-06-08T05:39:57.896Z,16.22
2019-06-08T05:40:57.844Z,16.32
2019-06-08T05:41:57.905Z,16.47
2019-06-08T05:42:57.792Z,16.40
2019-06-08T05:43:57.820Z,16.39
2019-06-08T05:44:57.786Z,16.41
2019-06-08T05:45:57.891Z,16.31
2019-06-08T05:46:57.759Z,16.28
2019-06-08T05:47:57.842Z,16.10
2019-06-08T05:48:57.733Z,16.17
2019-06-08T05:49:57.756Z,16.17
2019-06-08T05:51:03.977Z,16.17
2019-06-08T05:51:59.715Z,16.08
2019-06-08T05:52:57.712Z,16.06
2019-06-08T05:53:57.855Z,15.91
2019-06-08T05:54:57.686Z,15.99
2019-06-08T05:55:57.753Z,16.03
2019-06-08T05:56:57.637Z,15.96
2019-06-08T05:57:57.726Z,15.99
2019-06-08T05:58:57.635Z,15.92
2019-06-08T05:59:57.619Z,15.92
2019-06-08T06:00:57.616Z,15.88
2019-06-08T06:01:57.637Z,16.03
2019-06-08T06:02:57.574Z,16.09
2019-06-08T06:03:57.663Z,16.09
2019-06-08T06:04:57.607Z,16.18
2019-06-08T06:05:57.603Z,16.13
2019-06-08T06:06:57.533Z,16.24
2019-06-08T06:07:57.584Z,16.22
2019-06-08T06:08:57.539Z,16.18
2019-06-08T06:09:57.612Z,16.28
2019-06-08T06:10:57.504Z,16.21
2019-06-08T06:11:57.501Z,16.22
2019-06-08T06:12:57.463Z,16.21
2019-06-08T06:13:57.541Z,16.17
2019-06-08T06:14:57.450Z,16.29
2019-06-08T06:15:57.460Z,16.28
2019-06-08T06:16:57.418Z,16.31
2019-06-08T06:17:57.439Z,16.37
2019-06-08T06:18:57.399Z,16.32
2019-06-08T06:19:57.453Z,16.41
2019-06-08T06:21:10.357Z,16.47
2019-06-08T06:21:58.359Z,16.40
2019-06-08T06:22:58.639Z,16.51
2019-06-08T06:23:57.338Z,16.64
2019-06-08T06:24:57.381Z,16.73
2019-06-08T06:25:57.316Z,16.79
2019-06-08T06:26:57.434Z,16.86
2019-06-08T06:27:57.303Z,16.82
2019-06-08T06:29:04.269Z,16.92
2019-06-08T06:29:57.276Z,16.87
2019-06-08T06:31:04.283Z,16.86
2019-06-08T06:31:57.274Z,16.72
2019-06-08T06:32:57.332Z,16.69
2019-06-08T06:33:57.269Z,16.73
2019-06-08T06:34:57.244Z,16.76
2019-06-08T06:35:57.206Z,16.73
2019-06-08T06:36:57.617Z,16.62
2019-06-08T06:37:57.188Z,16.59
2019-06-08T06:38:57.271Z,16.57
2019-06-08T06:39:57.159Z,16.64
2019-06-08T06:40:57.214Z,16.65
2019-06-08T06:41:57.177Z,16.69
2019-06-08T06:42:57.218Z,16.69
2019-06-08T06:43:57.114Z,16.73
2019-06-08T06:44:57.211Z,16.84
2019-06-08T06:45:57.097Z,16.69
2019-06-08T06:46:57.152Z,16.58
2019-06-08T06:47:57.069Z,16.87
2019-06-08T06:48:57.147Z,16.94
2019-06-08T06:49:57.072Z,16.84
2019-06-08T06:50:57.160Z,16.79
2019-06-08T06:51:57.050Z,16.73
2019-06-08T06:52:57.064Z,16.76
2019-06-08T06:53:57.006Z,16.77
2019-06-08T06:54:57.075Z,16.86
2019-06-08T06:55:56.987Z,16.82
2019-06-08T06:56:57.024Z,16.77
2019-06-08T06:57:57.009Z,16.79
2019-06-08T06:58:57.009Z,16.87
2019-06-08T06:59:56.953Z,16.77
2019-06-08T07:00:57.013Z,16.64
2019-06-08T07:01:57.629Z,16.59
2019-06-08T07:02:56.929Z,16.57
2019-06-08T07:03:56.888Z,16.61
2019-06-08T07:04:56.947Z,16.54
2019-06-08T07:05:56.871Z,16.54
2019-06-08T07:06:56.885Z,16.55
2019-06-08T07:07:56.843Z,16.36
2019-06-08T07:08:56.881Z,16.29
2019-06-08T07:09:56.828Z,16.32
2019-06-08T07:10:56.883Z,16.31
2019-06-08T07:11:56.860Z,16.26
2019-06-08T07:12:56.890Z,16.26
2019-06-08T07:13:56.800Z,16.25
2019-06-08T07:14:57.830Z,16.22
2019-06-08T07:15:58.226Z,16.25
2019-06-08T07:16:58.306Z,16.10
2019-06-08T07:17:56.755Z,16.10
2019-06-08T07:18:56.841Z,16.00
2019-06-08T07:19:56.713Z,16.03
2019-06-08T07:20:56.746Z,15.88
2019-06-08T07:21:56.722Z,16.03
2019-06-08T07:22:56.757Z,16.02
2019-06-08T07:23:56.679Z,16.02
2019-06-08T07:24:56.693Z,16.02
2019-06-08T07:25:56.648Z,16.02
2019-06-08T07:26:56.715Z,15.87
2019-06-08T07:27:56.622Z,15.84
2019-06-08T07:28:56.693Z,15.90
2019-06-08T07:29:56.597Z,15.90
2019-06-08T07:30:56.604Z,15.85
2019-06-08T07:31:56.593Z,15.87
2019-06-08T07:32:56.621Z,15.87
2019-06-08T07:33:56.558Z,15.87
2019-06-08T07:34:56.663Z,15.76
2019-06-08T07:35:56.607Z,15.80
2019-06-08T07:36:56.599Z,15.80
2019-06-08T07:37:56.514Z,15.80
2019-06-08T07:38:56.560Z,15.83
2019-06-08T07:39:56.540Z,15.87
2019-06-08T07:40:59.607Z,15.78
2019-06-08T07:41:56.485Z,15.78
2019-06-08T07:42:56.796Z,15.83
2019-06-08T07:43:56.687Z,15.78
2019-06-08T07:44:56.500Z,15.90
2019-06-08T07:45:56.443Z,15.80
2019-06-08T07:46:56.544Z,15.84
2019-06-08T07:47:56.403Z,15.85
2019-06-08T07:48:56.666Z,15.85
2019-06-08T07:49:56.388Z,15.87
2019-06-08T07:50:56.600Z,15.83
2019-06-08T07:52:07.529Z,15.84
2019-06-08T07:52:58.776Z,15.75
2019-06-08T07:53:56.358Z,15.75
2019-06-08T07:54:56.680Z,15.72
2019-06-08T07:55:56.448Z,15.70
2019-06-08T07:56:57.065Z,15.72
2019-06-08T07:57:57.343Z,15.72
2019-06-08T07:58:57.197Z,15.83
2019-06-08T07:59:56.461Z,15.78
2019-06-08T08:01:02.615Z,15.85
2019-06-08T08:01:58.360Z,15.90
2019-06-08T08:02:58.288Z,15.87
2019-06-08T08:03:56.377Z,15.81
2019-06-08T08:04:56.723Z,15.80
2019-06-08T08:05:56.762Z,15.80
2019-06-08T08:06:56.721Z,15.84
2019-06-08T08:07:56.904Z,15.80
2019-06-08T08:08:56.877Z,15.80
2019-06-08T08:09:56.963Z,15.73
2019-06-08T08:10:56.745Z,15.67
2019-06-08T08:11:57.142Z,15.73
2019-06-08T08:12:56.849Z,15.62
2019-06-08T08:13:57.469Z,15.60
2019-06-08T08:14:57.857Z,15.63
2019-06-08T08:15:58.714Z,15.60
2019-06-08T08:16:57.166Z,15.60
2019-06-08T08:17:57.592Z,15.62
2019-06-08T08:18:57.504Z,15.65
2019-06-08T08:19:57.315Z,15.69
2019-06-08T08:21:01.071Z,15.75
2019-06-08T08:22:00.099Z,15.73
2019-06-08T08:23:03.584Z,15.69
2019-06-08T08:23:59.644Z,15.72
2019-06-08T08:25:01.336Z,15.81
2019-06-08T08:26:00.306Z,15.87
2019-06-08T08:26:59.343Z,15.84
2019-06-08T08:27:59.068Z,16.02
2019-06-08T08:28:59.668Z,16.12
2019-06-08T08:29:59.751Z,16.24
2019-06-08T08:30:58.574Z,16.26
2019-06-08T08:31:55.917Z,16.24
2019-06-08T08:32:57.130Z,16.44
2019-06-08T08:33:58.519Z,16.24
2019-06-08T08:35:00.338Z,16.24
2019-06-08T08:35:59.813Z,16.18
2019-06-08T08:37:01.535Z,16.22
2019-06-08T08:38:01.798Z,16.16
2019-06-08T08:39:00.515Z,16.08
2019-06-08T08:39:59.638Z,16.10
2019-06-08T08:41:06.292Z,16.09
2019-06-08T08:42:02.822Z,16.06
2019-06-08T08:42:58.701Z,16.03
2019-06-08T08:44:00.825Z,16.12
2019-06-08T08:45:02.672Z,15.98
2019-06-08T08:45:58.790Z,15.98
2019-06-08T08:46:56.983Z,15.99
2019-06-08T08:48:12.296Z,16.02
2019-06-08T08:49:05.985Z,16.03
2019-06-08T08:49:58.699Z,16.24
2019-06-08T08:50:56.936Z,16.21
2019-06-08T08:51:56.157Z,16.18
2019-06-08T08:52:58.518Z,16.31
2019-06-08T08:53:58.486Z,16.34
2019-06-08T08:54:59.074Z,16.36
2019-06-08T08:55:57.931Z,16.49
2019-06-08T08:57:01.069Z,16.49
2019-06-08T08:57:59.059Z,16.49
2019-06-08T08:58:59.166Z,16.59
2019-06-08T09:00:01.114Z,16.46
2019-06-08T09:00:59.483Z,16.39
2019-06-08T09:01:56.751Z,16.29
2019-06-08T09:03:19.026Z,16.39
2019-06-08T09:04:00.930Z,16.49
2019-06-08T09:04:59.697Z,16.59
2019-06-08T09:06:00.594Z,16.51
2019-06-08T09:07:02.360Z,16.37
2019-06-08T09:07:58.821Z,16.29
2019-06-08T09:09:00.816Z,16.26
2019-06-08T09:10:00.431Z,16.28
2019-06-08T09:10:59.734Z,16.57
2019-06-08T09:12:00.248Z,16.50
2019-06-08T09:12:59.982Z,16.41
2019-06-08T09:14:02.502Z,16.37
2019-06-08T09:14:58.896Z,16.39
2019-06-08T09:15:55.830Z,16.39
2019-06-08T09:16:56.372Z,16.47
2019-06-08T09:17:56.462Z,16.61
2019-06-08T09:18:55.824Z,16.51
2019-06-08T09:19:58.430Z,16.55
2019-06-08T09:20:58.258Z,16.57
2019-06-08T09:21:56.726Z,16.54
2019-06-08T09:23:03.930Z,16.49
2019-06-08T09:23:58.823Z,16.43
2019-06-08T09:24:59.209Z,16.39
2019-06-08T09:26:03.942Z,16.34
2019-06-08T09:27:00.007Z,16.36
2019-06-08T09:27:59.390Z,16.39
2019-06-08T09:28:56.174Z,16.41
2019-06-08T09:29:57.457Z,16.24
2019-06-08T09:30:56.713Z,16.17
2019-06-08T09:31:56.019Z,16.18
2019-06-08T09:32:57.161Z,16.21
2019-06-08T09:34:04.119Z,16.17
2019-06-08T09:34:59.219Z,16.09
2019-06-08T09:35:59.985Z,16.18
2019-06-08T09:36:59.745Z,16.08
2019-06-08T09:37:59.451Z,16.05
2019-06-08T09:38:59.611Z,15.92
2019-06-08T09:39:58.505Z,16.09
2019-06-08T09:40:55.143Z,16.12
2019-06-08T09:41:58.200Z,16.05
2019-06-08T09:43:05.421Z,16.10
2019-06-08T09:43:58.166Z,16.10
2019-06-08T09:44:55.698Z,16.06
2019-06-08T09:45:55.408Z,15.91
2019-06-08T09:46:56.354Z,15.78
2019-06-08T09:47:55.395Z,15.76
2019-06-08T09:48:58.389Z,15.75
2019-06-08T09:49:55.389Z,15.73
2019-06-08T09:50:55.196Z,15.67
2019-06-08T09:51:56.496Z,15.72
2019-06-08T09:53:10.117Z,15.84
2019-06-08T09:54:00.347Z,15.92
2019-06-08T09:55:00.291Z,16.02
2019-06-08T09:55:57.575Z,16.12
2019-06-08T09:56:55.782Z,15.96
2019-06-08T09:57:58.967Z,15.90
2019-06-08T09:58:58.228Z,15.80
2019-06-08T09:59:57.117Z,15.81
2019-06-08T10:00:56.065Z,15.75
2019-06-08T10:01:55.610Z,15.63
2019-06-08T10:02:56.830Z,15.69
2019-06-08T10:03:56.136Z,15.66
2019-06-08T10:04:56.084Z,15.72
2019-06-08T10:05:56.170Z,15.85
2019-06-08T10:06:56.197Z,15.81
2019-06-08T10:07:56.951Z,15.84
2019-06-08T10:08:56.254Z,15.90
2019-06-08T10:09:56.821Z,16.06
2019-06-08T10:11:01.482Z,16.22
2019-06-08T10:11:58.615Z,16.29
2019-06-08T10:12:56.943Z,16.17
2019-06-08T10:13:57.080Z,16.31
2019-06-08T10:14:56.719Z,16.26
2019-06-08T10:15:55.192Z,16.29
2019-06-08T10:16:54.804Z,16.29
2019-06-08T10:17:54.882Z,16.29
2019-06-08T10:18:55.053Z,16.25
2019-06-08T10:19:54.771Z,16.34
2019-06-08T10:20:54.813Z,16.29
2019-06-08T10:21:54.853Z,16.39
2019-06-08T10:22:54.835Z,16.40
2019-06-08T10:23:54.873Z,16.51
2019-06-08T10:24:55.416Z,16.54
2019-06-08T10:25:54.907Z,16.62
2019-06-08T10:26:55.146Z,16.79
2019-06-08T10:27:55.170Z,16.82
2019-06-08T10:28:55.337Z,17.04
2019-06-08T10:29:55.210Z,17.32
2019-06-08T10:30:55.434Z,17.59
2019-06-08T10:31:55.200Z,18.02
2019-06-08T10:32:56.267Z,18.28
2019-06-08T10:33:56.306Z,18.03
2019-06-08T10:34:56.395Z,17.93
2019-06-08T10:35:55.713Z,17.75
2019-06-08T10:36:57.979Z,17.71
2019-06-08T10:37:55.627Z,17.69
2019-06-08T10:38:56.715Z,17.32
2019-06-08T10:39:55.800Z,17.13
2019-06-08T10:40:58.706Z,17.09
2019-06-08T10:41:57.602Z,17.13
2019-06-08T10:42:54.543Z,17.07
2019-06-08T10:43:54.444Z,16.91
2019-06-08T10:44:54.496Z,16.95
2019-06-08T10:45:54.428Z,17.02
2019-06-08T10:46:54.469Z,17.02
2019-06-08T10:47:54.429Z,17.10
2019-06-08T10:48:54.486Z,17.09
2019-06-08T10:49:54.387Z,17.14
2019-06-08T10:50:54.397Z,17.07
2019-06-08T10:51:54.349Z,17.02
2019-06-08T10:52:54.417Z,17.07
2019-06-08T10:53:54.343Z,17.09
2019-06-08T10:54:54.360Z,16.95
2019-06-08T10:55:54.307Z,16.99
2019-06-08T10:57:05.093Z,17.02
2019-06-08T10:57:54.295Z,16.94
2019-06-08T10:58:58.015Z,16.87
2019-06-08T10:59:54.307Z,16.87
2019-06-08T11:00:55.289Z,16.80
2019-06-08T11:01:54.265Z,16.79
2019-06-08T11:02:54.297Z,16.77
2019-06-08T11:03:54.249Z,16.80
2019-06-08T11:04:54.330Z,16.66
2019-06-08T11:05:54.206Z,16.69
2019-06-08T11:06:54.319Z,16.68
2019-06-08T11:07:54.188Z,16.73
2019-06-08T11:08:54.213Z,16.65
2019-06-08T11:09:54.175Z,16.68
2019-06-08T11:10:54.230Z,16.66
2019-06-08T11:11:54.131Z,16.84
2019-06-08T11:12:54.179Z,16.87
2019-06-08T11:13:54.125Z,16.86
2019-06-08T11:14:54.132Z,16.82
2019-06-08T11:15:54.103Z,16.91
2019-06-08T11:16:54.194Z,16.97
2019-06-08T11:17:54.081Z,16.98
2019-06-08T11:18:54.185Z,16.98
2019-06-08T11:19:54.072Z,17.01
2019-06-08T11:20:54.100Z,17.19
2019-06-08T11:21:54.046Z,17.20
2019-06-08T11:22:54.125Z,17.16
2019-06-08T11:24:10.837Z,17.20
2019-06-08T11:24:55.013Z,17.28
2019-06-08T11:25:54.023Z,17.41
2019-06-08T11:26:53.983Z,17.34
2019-06-08T11:27:54.052Z,17.39
2019-06-08T11:28:53.950Z,17.54
2019-06-08T11:29:53.998Z,17.56
2019-06-08T11:30:53.938Z,17.63
2019-06-08T11:31:53.987Z,17.72
2019-06-08T11:32:53.934Z,17.78
2019-06-08T11:33:53.986Z,18.46
2019-06-08T11:34:53.894Z,18.94
2019-06-08T11:35:53.899Z,19.70
2019-06-08T11:36:53.893Z,20.10
2019-06-08T11:37:53.904Z,20.24
2019-06-08T11:38:53.836Z,20.53
2019-06-08T11:39:54.885Z,20.53
2019-06-08T11:40:53.820Z,20.44
2019-06-08T11:41:53.828Z,20.63
2019-06-08T11:42:53.793Z,20.63
2019-06-08T11:44:03.258Z,20.88
2019-06-08T11:44:53.791Z,21.17
2019-06-08T11:45:54.787Z,21.56
2019-06-08T11:46:53.749Z,21.25
2019-06-08T11:47:53.778Z,21.26
2019-06-08T11:48:53.729Z,21.45
2019-06-08T11:49:53.862Z,21.92
2019-06-08T11:50:53.701Z,21.91
2019-06-08T11:51:53.794Z,21.28
2019-06-08T11:52:53.692Z,21.53
2019-06-08T11:53:53.705Z,21.08
2019-06-08T11:54:53.677Z,21.44
2019-06-08T11:55:53.713Z,21.35
2019-06-08T11:56:53.631Z,20.58
2019-06-08T11:57:53.762Z,20.03
2019-06-08T11:58:53.607Z,19.48
2019-06-08T11:59:53.678Z,19.07
2019-06-08T12:00:53.590Z,18.96
2019-06-08T12:01:53.655Z,18.96
2019-06-08T12:02:53.601Z,18.85
2019-06-08T12:03:53.573Z,19.01
2019-06-08T12:04:53.586Z,19.12
2019-06-08T12:05:53.585Z,19.08
2019-06-08T12:06:53.531Z,19.57
2019-06-08T12:07:53.593Z,19.60
2019-06-08T12:08:53.499Z,19.57
2019-06-08T12:09:54.534Z,19.78
2019-06-08T12:10:53.503Z,20.71
2019-06-08T12:11:53.520Z,20.95
2019-06-08T12:12:53.492Z,20.18
2019-06-08T12:13:53.529Z,19.57
2019-06-08T12:14:53.440Z,19.71
2019-06-08T12:15:53.495Z,19.87
2019-06-08T12:16:53.416Z,20.02
2019-06-08T12:17:53.456Z,20.27
2019-06-08T12:18:53.417Z,20.17
2019-06-08T12:19:53.478Z,20.18
2019-06-08T12:20:53.388Z,20.02
2019-06-08T12:21:53.383Z,21.08
2019-06-08T12:22:53.347Z,21.40
2019-06-08T12:23:54.446Z,20.77
2019-06-08T12:24:53.323Z,20.14
2019-06-08T12:25:53.337Z,19.85
2019-06-08T12:27:00.158Z,20.12
2019-06-08T12:27:54.289Z,20.80
2019-06-08T12:28:53.335Z,20.48
2019-06-08T12:29:53.266Z,20.77
2019-06-08T12:30:54.296Z,20.32
2019-06-08T12:31:53.243Z,20.10
2019-06-08T12:32:53.251Z,19.70
2019-06-08T12:33:53.266Z,19.49
2019-06-08T12:34:53.263Z,19.48
2019-06-08T12:35:53.214Z,19.97
2019-06-08T12:36:53.287Z,19.97
2019-06-08T12:37:53.181Z,20.52
2019-06-08T12:38:53.188Z,20.59
2019-06-08T12:39:53.182Z,20.19
2019-06-08T12:40:53.242Z,19.85
2019-06-08T12:41:53.142Z,19.74
2019-06-08T12:42:53.215Z,19.89
2019-06-08T12:43:53.123Z,19.82
2019-06-08T12:44:53.130Z,20.36
2019-06-08T12:45:53.146Z,20.50
2019-06-08T12:46:53.149Z,19.74
2019-06-08T12:47:53.078Z,19.37
2019-06-08T12:48:53.156Z,19.34
2019-06-08T12:49:53.055Z,19.09
2019-06-08T12:50:53.106Z,19.08
2019-06-08T12:51:53.034Z,18.86